createdAt,value
2022-12-11T00:01:24.378Z,166.60
2022-12-11T00:06:24.275Z,166.60
2022-12-11T00:11:24.441Z,134.70
2022-12-11T00:16:27.072Z,134.70
2022-12-11T00:21:24.401Z,139.90
2022-12-11T00:26:24.189Z,139.90
2022-12-11T00:31:24.440Z,147.60
2022-12-11T00:36:24.211Z,147.60
2022-12-11T00:41:24.348Z,156.10
2022-12-11T00:46:24.236Z,156.10
2022-12-11T00:51:24.337Z,338.80
2022-12-11T00:56:24.477Z,338.80
2022-12-11T01:01:24.413Z,175.60
2022-12-11T01:06:24.144Z,175.60
2022-12-11T01:11:24.282Z,147.20
2022-12-11T01:16:24.484Z,147.20
2022-12-11T01:21:24.198Z,299.00
2022-12-11T01:26:24.344Z,299.00
2022-12-11T01:31:24.175Z,172.50
2022-12-11T01:36:24.336Z,172.50
2022-12-11T01:41:24.196Z,179.00
2022-12-11T01:46:24.257Z,179.00
2022-12-11T01:51:24.222Z,416.10
2022-12-11T01:56:24.218Z,416.10
2022-12-11T02:01:24.265Z,457.10
2022-12-11T02:06:24.228Z,457.10
2022-12-11T02:11:24.208Z,440.30
2022-12-11T02:16:24.275Z,440.30
2022-12-11T02:21:24.376Z,448.00
2022-12-11T02:26:24.765Z,448.00
2022-12-11T02:31:24.360Z,310.60
2022-12-11T02:36:24.233Z,310.60
2022-12-11T02:41:24.328Z,251.90
2022-12-11T02:46:24.459Z,251.90
2022-12-11T02:51:24.311Z,255.80
2022-12-11T02:56:24.235Z,255.80
2022-12-11T03:01:24.603Z,139.70
2022-12-11T03:06:24.376Z,139.70
2022-12-11T03:11:24.547Z,189.70
2022-12-11T03:16:24.269Z,189.70
2022-12-11T03:26:24.320Z,237.60
2022-12-11T03:31:24.460Z,224.30
2022-12-11T03:36:24.291Z,224.30
2022-12-11T03:41:24.265Z,447.40
2022-12-11T03:46:24.339Z,447.40
2022-12-11T03:51:24.233Z,218.30
2022-12-11T03:56:24.657Z,218.30
2022-12-11T04:01:24.375Z,249.10
2022-12-11T04:06:24.532Z,249.10
2022-12-11T04:11:24.270Z,230.40
2022-12-11T04:16:24.471Z,230.40
2022-12-11T04:21:24.327Z,251.10
2022-12-11T04:31:24.653Z,280.00
2022-12-11T04:36:24.438Z,280.00
2022-12-11T04:41:24.557Z,290.90
2022-12-11T04:46:24.336Z,290.90
2022-12-11T04:51:24.266Z,232.40
2022-12-11T04:56:24.284Z,232.40
2022-12-11T05:01:24.326Z,304.80
2022-12-11T05:06:24.277Z,304.80
2022-12-11T05:11:24.240Z,314.40
2022-12-11T05:16:24.373Z,314.40
2022-12-11T05:21:24.261Z,349.00
2022-12-11T05:26:24.609Z,349.00
2022-12-11T05:31:24.344Z,324.20
2022-12-11T05:36:24.556Z,324.20
2022-12-11T05:41:24.309Z,333.30
2022-12-11T05:46:24.592Z,333.30
2022-12-11T05:51:24.298Z,332.60
2022-12-11T05:56:24.514Z,332.60
2022-12-11T06:01:24.334Z,335.50
2022-12-11T06:06:24.482Z,335.50
2022-12-11T06:11:24.637Z,315.00
2022-12-11T06:16:24.491Z,315.00
2022-12-11T06:21:24.306Z,325.60
2022-12-11T06:26:24.410Z,325.60
2022-12-11T06:31:24.605Z,327.40
2022-12-11T06:36:24.386Z,327.40
2022-12-11T06:46:24.432Z,327.10
2022-12-11T06:51:24.499Z,266.70
2022-12-11T06:56:24.321Z,266.70
2022-12-11T07:01:24.647Z,267.90
2022-12-11T07:06:24.608Z,267.90
2022-12-11T07:11:24.418Z,323.80
2022-12-11T07:16:24.374Z,323.80
2022-12-11T07:21:24.458Z,336.60
2022-12-11T07:26:24.325Z,336.60
2022-12-11T07:31:24.423Z,357.30
2022-12-11T07:36:24.298Z,357.30
2022-12-11T07:41:24.358Z,370.60
2022-12-11T07:46:24.336Z,370.60
2022-12-11T07:51:24.344Z,351.60
2022-12-11T07:56:24.326Z,351.60
2022-12-11T08:01:24.361Z,360.60
2022-12-11T08:06:24.438Z,360.60
2022-12-11T08:11:24.583Z,342.50
2022-12-11T08:16:24.434Z,342.50
2022-12-11T08:31:24.761Z,317.70
2022-12-11T08:36:24.658Z,317.70
2022-12-11T08:41:24.349Z,346.20
2022-12-11T08:46:24.702Z,346.20
2022-12-11T08:51:24.353Z,310.60
2022-12-11T09:01:24.464Z,333.40
2022-12-11T09:06:24.580Z,333.40
2022-12-11T09:11:24.375Z,305.10
2022-12-11T09:16:24.448Z,305.10
2022-12-11T09:21:24.374Z,308.80
2022-12-11T09:26:24.397Z,308.80
2022-12-11T09:31:24.700Z,299.30
2022-12-11T09:36:24.373Z,299.30
2022-12-11T09:41:24.618Z,211.70
2022-12-11T09:46:24.767Z,211.70
2022-12-11T09:51:24.582Z,228.70
2022-12-11T09:53:16.880Z,228.70
2022-12-11T10:01:26.582Z,269.20
2022-12-11T10:06:24.390Z,269.20
2022-12-11T10:11:24.525Z,273.90
2022-12-11T10:16:24.666Z,273.90
2022-12-11T10:21:24.512Z,309.90
2022-12-11T10:26:24.615Z,309.90
2022-12-11T10:31:24.552Z,348.80
2022-12-11T10:36:24.569Z,348.80
2022-12-11T10:41:24.408Z,361.70
2022-12-11T10:51:24.982Z,236.20
2022-12-11T10:56:24.546Z,236.20
2022-12-11T11:01:24.419Z,276.80
2022-12-11T11:06:24.518Z,276.80
2022-12-11T11:11:24.635Z,301.60
2022-12-11T11:16:24.521Z,301.60
2022-12-11T11:21:24.425Z,282.40
2022-12-11T11:26:30.760Z,282.40
2022-12-11T11:31:24.629Z,307.00
2022-12-11T11:36:26.752Z,307.00
2022-12-11T11:41:24.440Z,310.50
2022-12-11T11:46:24.496Z,310.50
2022-12-11T11:51:24.431Z,313.50
2022-12-11T12:01:24.474Z,276.00
2022-12-11T12:06:24.654Z,276.00
2022-12-11T12:11:24.446Z,284.80
2022-12-11T12:16:51.712Z,284.80
2022-12-11T12:21:24.764Z,301.50
2022-12-11T12:26:24.673Z,301.50
2022-12-11T12:31:24.749Z,321.90
2022-12-11T12:36:24.475Z,321.90
2022-12-11T12:41:24.701Z,309.00
2022-12-11T12:51:25.085Z,331.40
2022-12-11T12:56:24.717Z,331.40
2022-12-11T13:01:24.700Z,296.30
2022-12-11T13:06:26.777Z,296.30
2022-12-11T13:11:24.458Z,301.30
2022-12-11T13:16:24.467Z,301.30
2022-12-11T13:21:24.549Z,349.60
2022-12-11T13:26:24.719Z,349.60
2022-12-11T13:31:24.734Z,361.60
2022-12-11T13:36:24.978Z,361.60
2022-12-11T13:41:24.583Z,357.30
2022-12-11T13:46:24.826Z,357.30
2022-12-11T13:51:24.997Z,372.40
2022-12-11T13:56:24.685Z,372.40
2022-12-11T14:01:25.052Z,351.30
2022-12-11T14:06:24.605Z,351.30
2022-12-11T14:11:24.704Z,348.50
2022-12-11T14:16:24.601Z,348.50
2022-12-11T14:21:24.512Z,279.50
2022-12-11T14:26:24.467Z,279.50
2022-12-11T14:31:24.595Z,207.70
2022-12-11T14:36:24.517Z,207.70
2022-12-11T14:41:24.521Z,232.20
2022-12-11T14:46:24.850Z,232.20
2022-12-11T14:51:24.658Z,436.50
2022-12-11T14:56:24.752Z,436.50
2022-12-11T15:01:24.760Z,448.90
2022-12-11T15:06:24.734Z,448.90
2022-12-11T15:11:24.488Z,454.00
2022-12-11T15:16:24.880Z,454.00
2022-12-11T15:21:24.466Z,441.10
2022-12-11T15:26:24.667Z,441.10
2022-12-11T15:31:24.813Z,441.90
2022-12-11T15:36:24.585Z,441.90
2022-12-11T15:41:24.726Z,477.70
2022-12-11T15:46:24.733Z,477.70
2022-12-11T15:51:24.767Z,467.50
2022-12-11T15:56:24.577Z,467.50
2022-12-11T16:01:25.169Z,469.60
2022-12-11T16:16:25.132Z,467.20
2022-12-11T16:21:24.659Z,468.50
2022-12-11T16:26:24.743Z,468.50
2022-12-11T16:31:24.745Z,465.20
2022-12-11T16:36:24.519Z,465.20
2022-12-11T16:41:24.586Z,452.50
2022-12-11T16:46:24.957Z,452.50
2022-12-11T16:51:24.570Z,458.80
2022-12-11T16:56:24.508Z,458.80
2022-12-11T17:01:24.575Z,460.30
2022-12-11T17:06:24.787Z,460.30
2022-12-11T17:11:24.817Z,462.30
2022-12-11T17:16:24.750Z,462.30
2022-12-11T17:21:25.464Z,466.90
2022-12-11T17:26:24.716Z,466.90
2022-12-11T17:31:25.287Z,493.30
2022-12-11T17:36:24.555Z,493.30
2022-12-11T17:41:24.830Z,494.20
2022-12-11T17:46:24.874Z,494.20
2022-12-11T17:51:24.778Z,494.90
2022-12-11T17:56:24.841Z,494.90
2022-12-11T18:01:24.989Z,491.10
2022-12-11T18:06:24.811Z,491.10
2022-12-11T18:11:24.828Z,479.90
2022-12-11T18:16:24.983Z,479.90
2022-12-11T18:21:24.719Z,474.30
2022-12-11T18:26:24.911Z,474.30
2022-12-11T18:31:25.252Z,474.90
2022-12-11T18:36:24.929Z,474.90
2022-12-11T18:41:24.867Z,480.00
2022-12-11T18:46:24.829Z,480.00
2022-12-11T18:51:25.013Z,496.70
2022-12-11T18:56:24.769Z,496.70
2022-12-11T19:01:25.003Z,493.60
2022-12-11T19:06:24.867Z,493.60
2022-12-11T19:11:25.008Z,493.80
2022-12-11T19:16:24.992Z,493.80
2022-12-11T19:21:24.869Z,499.90
2022-12-11T19:26:25.027Z,499.90
2022-12-11T19:31:24.875Z,521.60
2022-12-11T19:36:24.996Z,521.60
2022-12-11T19:41:24.596Z,546.80
2022-12-11T19:46:25.161Z,546.80
2022-12-11T19:51:24.618Z,535.20
2022-12-11T19:56:25.053Z,535.20
2022-12-11T20:06:25.333Z,532.80
2022-12-11T20:11:24.914Z,543.90
2022-12-11T20:16:46.338Z,543.90
2022-12-11T20:21:24.615Z,531.70
2022-12-11T20:26:24.953Z,531.70
2022-12-11T20:31:25.194Z,547.90
2022-12-11T20:36:24.848Z,547.90
2022-12-11T20:41:25.086Z,535.50
2022-12-11T20:46:25.278Z,535.50
2022-12-11T20:51:26.264Z,516.50
2022-12-11T20:56:25.157Z,516.50
2022-12-11T21:11:24.939Z,509.90
2022-12-11T21:16:24.952Z,509.90
2022-12-11T21:26:25.011Z,510.10
2022-12-11T21:31:25.083Z,517.00
2022-12-11T21:36:24.832Z,517.00
2022-12-11T21:41:24.975Z,524.60
2022-12-11T21:46:24.832Z,524.60
2022-12-11T21:51:24.895Z,535.10
2022-12-11T21:56:24.757Z,535.10
2022-12-11T22:01:24.687Z,532.80
2022-12-11T22:11:24.664Z,570.00
2022-12-11T22:16:24.739Z,570.00
2022-12-11T22:21:24.617Z,617.10
2022-12-11T22:26:24.962Z,617.10
2022-12-11T22:31:24.781Z,631.90
2022-12-11T22:36:24.933Z,631.90
2022-12-11T22:41:24.662Z,602.30
2022-12-11T22:46:24.871Z,602.30
2022-12-11T22:51:24.728Z,620.70
2022-12-11T22:56:24.866Z,620.70
2022-12-11T23:01:24.659Z,627.70
2022-12-11T23:06:24.864Z,627.70
2022-12-11T23:11:24.692Z,580.30
2022-12-11T23:16:24.856Z,580.30
2022-12-11T23:21:24.694Z,605.80
2022-12-11T23:26:24.784Z,605.80
2022-12-11T23:31:24.700Z,509.40
2022-12-11T23:36:24.747Z,509.40
2022-12-11T23:41:24.891Z,553.40
2022-12-11T23:46:24.763Z,553.40
2022-12-11T23:51:24.868Z,310.70
2022-12-11T23:56:24.658Z,310.70
